sensor_id;sensor_type;location;lat;lon;timestamp;P1;durP1;ratioP1;P2;durP2;ratioP2
22490;SDS011;11412;50.802;4.350;2024-02-04T00:01:41;8.85;;;6.57;;
22490;SDS011;11412;50.802;4.350;2024-02-04T00:04:06;7.53;;;6.25;;
22490;SDS011;11412;50.802;4.350;2024-02-04T00:06:32;8.55;;;5.80;;
22490;SDS011;11412;50.802;4.350;2024-02-04T00:08:58;15.90;;;6.55;;
22490;SDS011;11412;50.802;4.350;2024-02-04T00:11:24;11.48;;;6.13;;
22490;SDS011;11412;50.802;4.350;2024-02-04T00:13:49;13.40;;;5.68;;
22490;SDS011;11412;50.802;4.350;2024-02-04T00:16:15;17.05;;;6.60;;
22490;SDS011;11412;50.802;4.350;2024-02-04T00:18:41;9.15;;;5.93;;
22490;SDS011;11412;50.802;4.350;2024-02-04T00:21:06;10.63;;;6.45;;
22490;SDS011;11412;50.802;4.350;2024-02-04T00:23:32;9.82;;;5.45;;
22490;SDS011;11412;50.802;4.350;2024-02-04T00:25:58;7.28;;;5.18;;
22490;SDS011;11412;50.802;4.350;2024-02-04T00:28:24;10.15;;;5.60;;
22490;SDS011;11412;50.802;4.350;2024-02-04T00:30:49;13.38;;;5.35;;
22490;SDS011;11412;50.802;4.350;2024-02-04T00:33:17;9.77;;;5.38;;
22490;SDS011;11412;50.802;4.350;2024-02-04T00:35:45;9.75;;;5.22;;
22490;SDS011;11412;50.802;4.350;2024-02-04T00:38:10;11.70;;;5.18;;
22490;SDS011;11412;50.802;4.350;2024-02-04T00:40:36;7.88;;;5.05;;
22490;SDS011;11412;50.802;4.350;2024-02-04T00:43:02;10.82;;;5.32;;
22490;SDS011;11412;50.802;4.350;2024-02-04T00:45:27;7.72;;;4.72;;
22490;SDS011;11412;50.802;4.350;2024-02-04T00:47:53;10.63;;;4.88;;
22490;SDS011;11412;50.802;4.350;2024-02-04T00:50:19;12.98;;;4.85;;
22490;SDS011;11412;50.802;4.350;2024-02-04T00:52:44;7.15;;;4.50;;
22490;SDS011;11412;50.802;4.350;2024-02-04T00:55:10;6.97;;;4.20;;
22490;SDS011;11412;50.802;4.350;2024-02-04T00:57:36;6.70;;;4.07;;
22490;SDS011;11412;50.802;4.350;2024-02-04T01:00:01;6.65;;;4.20;;
22490;SDS011;11412;50.802;4.350;2024-02-04T01:02:28;12.57;;;4.32;;
22490;SDS011;11412;50.802;4.350;2024-02-04T01:04:54;8.70;;;4.25;;
22490;SDS011;11412;50.802;4.350;2024-02-04T01:07:20;8.88;;;4.18;;
22490;SDS011;11412;50.802;4.350;2024-02-04T01:09:46;5.18;;;3.85;;
22490;SDS011;11412;50.802;4.350;2024-02-04T01:12:11;4.25;;;3.60;;
22490;SDS011;11412;50.802;4.350;2024-02-04T01:14:37;5.07;;;3.92;;
22490;SDS011;11412;50.802;4.350;2024-02-04T01:17:03;7.07;;;3.95;;
22490;SDS011;11412;50.802;4.350;2024-02-04T01:19:28;7.47;;;4.43;;
22490;SDS011;11412;50.802;4.350;2024-02-04T01:21:54;8.45;;;4.13;;
22490;SDS011;11412;50.802;4.350;2024-02-04T01:24:20;6.93;;;4.25;;
22490;SDS011;11412;50.802;4.350;2024-02-04T01:26:45;6.03;;;4.15;;
22490;SDS011;11412;50.802;4.350;2024-02-04T01:29:11;4.57;;;3.53;;
22490;SDS011;11412;50.802;4.350;2024-02-04T01:31:37;6.18;;;3.92;;
22490;SDS011;11412;50.802;4.350;2024-02-04T01:34:02;5.15;;;3.90;;
22490;SDS011;11412;50.802;4.350;2024-02-04T01:36:28;6.03;;;3.17;;
22490;SDS011;11412;50.802;4.350;2024-02-04T01:38:55;4.18;;;3.78;;
22490;SDS011;11412;50.802;4.350;2024-02-04T01:41:21;7.60;;;3.72;;
22490;SDS011;11412;50.802;4.350;2024-02-04T01:43:47;6.70;;;3.72;;
22490;SDS011;11412;50.802;4.350;2024-02-04T01:46:13;8.63;;;3.92;;
22490;SDS011;11412;50.802;4.350;2024-02-04T01:48:39;8.00;;;4.05;;
22490;SDS011;11412;50.802;4.350;2024-02-04T01:51:05;5.15;;;3.90;;
22490;SDS011;11412;50.802;4.350;2024-02-04T01:53:31;7.40;;;3.90;;
22490;SDS011;11412;50.802;4.350;2024-02-04T01:55:59;6.82;;;4.55;;
22490;SDS011;11412;50.802;4.350;2024-02-04T01:58:24;6.95;;;3.90;;
22490;SDS011;11412;50.802;4.350;2024-02-04T02:00:50;9.73;;;4.20;;
22490;SDS011;11412;50.802;4.350;2024-02-04T02:03:17;6.82;;;4.07;;
22490;SDS011;11412;50.802;4.350;2024-02-04T02:05:44;8.85;;;4.28;;
22490;SDS011;11412;50.802;4.350;2024-02-04T02:08:11;5.18;;;3.83;;
22490;SDS011;11412;50.802;4.350;2024-02-04T02:10:37;10.55;;;4.60;;
22490;SDS011;11412;50.802;4.350;2024-02-04T02:13:07;7.90;;;4.00;;
22490;SDS011;11412;50.802;4.350;2024-02-04T02:15:40;8.50;;;4.18;;
22490;SDS011;11412;50.802;4.350;2024-02-04T02:18:55;9.27;;;4.53;;
22490;SDS011;11412;50.802;4.350;2024-02-04T02:26:49;12.20;;;4.22;;
22490;SDS011;11412;50.802;4.350;2024-02-04T02:29:15;9.73;;;4.50;;
22490;SDS011;11412;50.802;4.350;2024-02-04T02:31:42;8.95;;;4.50;;
22490;SDS011;11412;50.802;4.350;2024-02-04T02:34:08;7.45;;;4.43;;
22490;SDS011;11412;50.802;4.350;2024-02-04T02:39:34;6.90;;;4.55;;
22490;SDS011;11412;50.802;4.350;2024-02-04T02:42:05;11.73;;;5.28;;
22490;SDS011;11412;50.802;4.350;2024-02-04T02:44:32;14.85;;;5.45;;
22490;SDS011;11412;50.802;4.350;2024-02-04T02:46:59;9.32;;;4.85;;
22490;SDS011;11412;50.802;4.350;2024-02-04T02:49:27;11.90;;;5.10;;
22490;SDS011;11412;50.802;4.350;2024-02-04T02:51:52;12.25;;;4.75;;
22490;SDS011;11412;50.802;4.350;2024-02-04T02:54:18;10.52;;;5.13;;
22490;SDS011;11412;50.802;4.350;2024-02-04T02:56:44;8.05;;;5.07;;
22490;SDS011;11412;50.802;4.350;2024-02-04T02:59:09;9.65;;;4.57;;
22490;SDS011;11412;50.802;4.350;2024-02-04T03:01:38;11.25;;;5.13;;
22490;SDS011;11412;50.802;4.350;2024-02-04T03:04:04;11.93;;;5.68;;
22490;SDS011;11412;50.802;4.350;2024-02-04T03:06:30;13.48;;;5.25;;
22490;SDS011;11412;50.802;4.350;2024-02-04T03:08:55;12.95;;;6.03;;
22490;SDS011;11412;50.802;4.350;2024-02-04T03:11:21;13.27;;;5.80;;
22490;SDS011;11412;50.802;4.350;2024-02-04T03:13:47;14.70;;;6.88;;
22490;SDS011;11412;50.802;4.350;2024-02-04T03:16:12;14.77;;;5.82;;
22490;SDS011;11412;50.802;4.350;2024-02-04T03:18:39;10.10;;;5.57;;
22490;SDS011;11412;50.802;4.350;2024-02-04T03:21:11;13.60;;;5.88;;
22490;SDS011;11412;50.802;4.350;2024-02-04T03:23:41;12.63;;;6.10;;
22490;SDS011;11412;50.802;4.350;2024-02-04T03:26:08;12.40;;;6.10;;
22490;SDS011;11412;50.802;4.350;2024-02-04T03:28:34;10.68;;;5.50;;
22490;SDS011;11412;50.802;4.350;2024-02-04T03:31:00;10.07;;;5.00;;
22490;SDS011;11412;50.802;4.350;2024-02-04T03:33:26;11.75;;;5.78;;
22490;SDS011;11412;50.802;4.350;2024-02-04T03:35:51;9.27;;;5.18;;
22490;SDS011;11412;50.802;4.350;2024-02-04T03:38:17;13.98;;;6.18;;
22490;SDS011;11412;50.802;4.350;2024-02-04T03:40:42;12.93;;;5.22;;
22490;SDS011;11412;50.802;4.350;2024-02-04T03:43:10;6.22;;;4.90;;
22490;SDS011;11412;50.802;4.350;2024-02-04T03:45:35;7.57;;;4.80;;
22490;SDS011;11412;50.802;4.350;2024-02-04T03:48:01;14.80;;;5.47;;
22490;SDS011;11412;50.802;4.350;2024-02-04T03:50:27;10.60;;;4.68;;
22490;SDS011;11412;50.802;4.350;2024-02-04T03:52:53;7.13;;;4.13;;
22490;SDS011;11412;50.802;4.350;2024-02-04T03:55:19;9.77;;;4.82;;
22490;SDS011;11412;50.802;4.350;2024-02-04T03:57:45;9.15;;;4.63;;
22490;SDS011;11412;50.802;4.350;2024-02-04T04:00:11;10.18;;;4.60;;
22490;SDS011;11412;50.802;4.350;2024-02-04T04:02:37;6.10;;;4.20;;
22490;SDS011;11412;50.802;4.350;2024-02-04T04:05:03;8.35;;;4.57;;
22490;SDS011;11412;50.802;4.350;2024-02-04T04:07:28;7.07;;;4.43;;
22490;SDS011;11412;50.802;4.350;2024-02-04T04:09:54;7.15;;;4.45;;
22490;SDS011;11412;50.802;4.350;2024-02-04T04:12:20;4.60;;;4.00;;
22490;SDS011;11412;50.802;4.350;2024-02-04T04:14:45;7.53;;;4.20;;
22490;SDS011;11412;50.802;4.350;2024-02-04T04:17:11;8.60;;;4.63;;
22490;SDS011;11412;50.802;4.350;2024-02-04T04:19:38;5.22;;;4.20;;
22490;SDS011;11412;50.802;4.350;2024-02-04T04:22:04;7.57;;;4.15;;
22490;SDS011;11412;50.802;4.350;2024-02-04T04:24:30;11.40;;;4.55;;
22490;SDS011;11412;50.802;4.350;2024-02-04T04:26:55;5.70;;;4.28;;
22490;SDS011;11412;50.802;4.350;2024-02-04T04:29:21;7.78;;;4.07;;
22490;SDS011;11412;50.802;4.350;2024-02-04T04:31:47;10.38;;;4.25;;
22490;SDS011;11412;50.802;4.350;2024-02-04T04:34:13;10.55;;;4.40;;
22490;SDS011;11412;50.802;4.350;2024-02-04T04:36:40;11.45;;;4.40;;
22490;SDS011;11412;50.802;4.350;2024-02-04T04:39:05;8.85;;;4.60;;
22490;SDS011;11412;50.802;4.350;2024-02-04T04:41:31;9.75;;;4.10;;
22490;SDS011;11412;50.802;4.350;2024-02-04T04:43:57;7.47;;;4.50;;
22490;SDS011;11412;50.802;4.350;2024-02-04T04:46:22;11.20;;;4.32;;
22490;SDS011;11412;50.802;4.350;2024-02-04T04:48:48;8.98;;;4.60;;
22490;SDS011;11412;50.802;4.350;2024-02-04T04:51:13;14.23;;;5.30;;
22490;SDS011;11412;50.802;4.350;2024-02-04T04:53:39;12.90;;;4.50;;
22490;SDS011;11412;50.802;4.350;2024-02-04T04:56:05;10.50;;;4.85;;
22490;SDS011;11412;50.802;4.350;2024-02-04T04:58:31;13.88;;;4.55;;
22490;SDS011;11412;50.802;4.350;2024-02-04T05:00:57;10.88;;;4.22;;
22490;SDS011;11412;50.802;4.350;2024-02-04T05:03:22;10.52;;;4.85;;
22490;SDS011;11412;50.802;4.350;2024-02-04T05:05:48;11.57;;;4.80;;
22490;SDS011;11412;50.802;4.350;2024-02-04T05:08:14;12.50;;;4.72;;
22490;SDS011;11412;50.802;4.350;2024-02-04T05:10:40;8.48;;;4.28;;
22490;SDS011;11412;50.802;4.350;2024-02-04T05:13:07;11.02;;;4.70;;
22490;SDS011;11412;50.802;4.350;2024-02-04T05:15:33;9.77;;;4.57;;
22490;SDS011;11412;50.802;4.350;2024-02-04T05:18:01;10.82;;;4.43;;
22490;SDS011;11412;50.802;4.350;2024-02-04T05:20:28;10.18;;;4.45;;
22490;SDS011;11412;50.802;4.350;2024-02-04T05:22:54;6.68;;;4.75;;
22490;SDS011;11412;50.802;4.350;2024-02-04T05:25:20;12.45;;;5.28;;
22490;SDS011;11412;50.802;4.350;2024-02-04T05:27:46;13.63;;;5.43;;
22490;SDS011;11412;50.802;4.350;2024-02-04T05:30:12;8.55;;;4.20;;
22490;SDS011;11412;50.802;4.350;2024-02-04T05:32:38;10.43;;;4.75;;
22490;SDS011;11412;50.802;4.350;2024-02-04T05:35:03;9.60;;;4.63;;
22490;SDS011;11412;50.802;4.350;2024-02-04T05:37:29;9.45;;;4.93;;
22490;SDS011;11412;50.802;4.350;2024-02-04T05:39:55;8.70;;;4.60;;
22490;SDS011;11412;50.802;4.350;2024-02-04T05:42:21;8.65;;;4.88;;
22490;SDS011;11412;50.802;4.350;2024-02-04T05:44:47;10.27;;;5.00;;
22490;SDS011;11412;50.802;4.350;2024-02-04T05:47:12;10.32;;;4.55;;
22490;SDS011;11412;50.802;4.350;2024-02-04T05:49:38;10.57;;;5.05;;
22490;SDS011;11412;50.802;4.350;2024-02-04T05:52:03;11.77;;;5.03;;
22490;SDS011;11412;50.802;4.350;2024-02-04T05:54:29;11.15;;;4.63;;
22490;SDS011;11412;50.802;4.350;2024-02-04T05:56:55;8.63;;;5.57;;
22490;SDS011;11412;50.802;4.350;2024-02-04T05:59:21;9.23;;;4.90;;
22490;SDS011;11412;50.802;4.350;2024-02-04T06:01:46;10.52;;;5.50;;
22490;SDS011;11412;50.802;4.350;2024-02-04T06:04:12;11.65;;;5.57;;
22490;SDS011;11412;50.802;4.350;2024-02-04T06:06:38;13.57;;;5.47;;
22490;SDS011;11412;50.802;4.350;2024-02-04T06:09:03;10.35;;;5.50;;
22490;SDS011;11412;50.802;4.350;2024-02-04T06:11:29;14.35;;;7.07;;
22490;SDS011;11412;50.802;4.350;2024-02-04T06:13:55;10.80;;;6.43;;
22490;SDS011;11412;50.802;4.350;2024-02-04T06:16:20;11.75;;;5.97;;
22490;SDS011;11412;50.802;4.350;2024-02-04T06:18:46;13.57;;;6.82;;
22490;SDS011;11412;50.802;4.350;2024-02-04T06:21:12;17.33;;;7.40;;
22490;SDS011;11412;50.802;4.350;2024-02-04T06:23:38;13.35;;;6.40;;
22490;SDS011;11412;50.802;4.350;2024-02-04T06:26:04;12.63;;;6.75;;
22490;SDS011;11412;50.802;4.350;2024-02-04T06:28:30;11.82;;;6.45;;
22490;SDS011;11412;50.802;4.350;2024-02-04T06:30:56;13.52;;;6.30;;
22490;SDS011;11412;50.802;4.350;2024-02-04T06:33:22;12.15;;;5.93;;
22490;SDS011;11412;50.802;4.350;2024-02-04T06:35:49;16.10;;;6.45;;
22490;SDS011;11412;50.802;4.350;2024-02-04T06:38:16;11.38;;;6.97;;
22490;SDS011;11412;50.802;4.350;2024-02-04T06:40:41;11.07;;;6.72;;
22490;SDS011;11412;50.802;4.350;2024-02-04T06:43:07;13.05;;;6.80;;
22490;SDS011;11412;50.802;4.350;2024-02-04T06:45:33;11.10;;;5.88;;
22490;SDS011;11412;50.802;4.350;2024-02-04T06:47:58;17.08;;;6.63;;
22490;SDS011;11412;50.802;4.350;2024-02-04T06:50:24;15.60;;;6.65;;
22490;SDS011;11412;50.802;4.350;2024-02-04T06:52:50;10.73;;;5.93;;
22490;SDS011;11412;50.802;4.350;2024-02-04T06:55:15;15.90;;;6.22;;
22490;SDS011;11412;50.802;4.350;2024-02-04T06:57:41;10.98;;;5.72;;
22490;SDS011;11412;50.802;4.350;2024-02-04T07:00:07;12.27;;;6.47;;
22490;SDS011;11412;50.802;4.350;2024-02-04T07:02:33;14.23;;;6.68;;
22490;SDS011;11412;50.802;4.350;2024-02-04T07:04:59;11.93;;;6.32;;
22490;SDS011;11412;50.802;4.350;2024-02-04T07:07:25;14.48;;;7.32;;
22490;SDS011;11412;50.802;4.350;2024-02-04T07:09:51;10.38;;;6.78;;
22490;SDS011;11412;50.802;4.350;2024-02-04T07:12:17;9.25;;;5.90;;
22490;SDS011;11412;50.802;4.350;2024-02-04T07:14:42;12.05;;;6.40;;
22490;SDS011;11412;50.802;4.350;2024-02-04T07:17:08;11.35;;;6.72;;
22490;SDS011;11412;50.802;4.350;2024-02-04T07:19:34;14.73;;;7.43;;
22490;SDS011;11412;50.802;4.350;2024-02-04T07:22:00;11.90;;;7.22;;
22490;SDS011;11412;50.802;4.350;2024-02-04T07:24:26;14.65;;;7.18;;
22490;SDS011;11412;50.802;4.350;2024-02-04T07:26:52;15.43;;;7.75;;
22490;SDS011;11412;50.802;4.350;2024-02-04T07:29:17;14.85;;;7.32;;
22490;SDS011;11412;50.802;4.350;2024-02-04T07:31:43;13.30;;;7.05;;
22490;SDS011;11412;50.802;4.350;2024-02-04T07:34:09;11.32;;;7.47;;
22490;SDS011;11412;50.802;4.350;2024-02-04T07:36:34;16.80;;;7.43;;
22490;SDS011;11412;50.802;4.350;2024-02-04T07:39:00;13.05;;;7.55;;
22490;SDS011;11412;50.802;4.350;2024-02-04T07:41:29;13.10;;;7.85;;
22490;SDS011;11412;50.802;4.350;2024-02-04T07:43:55;13.85;;;7.47;;
22490;SDS011;11412;50.802;4.350;2024-02-04T07:46:21;14.18;;;7.15;;
22490;SDS011;11412;50.802;4.350;2024-02-04T07:48:47;14.02;;;7.00;;
22490;SDS011;11412;50.802;4.350;2024-02-04T07:51:13;13.18;;;7.32;;
22490;SDS011;11412;50.802;4.350;2024-02-04T07:53:38;12.80;;;6.40;;
22490;SDS011;11412;50.802;4.350;2024-02-04T07:56:04;12.68;;;6.25;;
22490;SDS011;11412;50.802;4.350;2024-02-04T07:58:32;10.65;;;5.93;;
22490;SDS011;11412;50.802;4.350;2024-02-04T08:00:57;10.13;;;6.07;;
22490;SDS011;11412;50.802;4.350;2024-02-04T08:03:23;10.15;;;6.07;;
22490;SDS011;11412;50.802;4.350;2024-02-04T08:05:49;9.25;;;6.45;;
22490;SDS011;11412;50.802;4.350;2024-02-04T08:08:15;8.43;;;5.85;;
22490;SDS011;11412;50.802;4.350;2024-02-04T08:10:40;10.13;;;6.15;;
22490;SDS011;11412;50.802;4.350;2024-02-04T08:13:07;8.45;;;5.93;;
22490;SDS011;11412;50.802;4.350;2024-02-04T08:15:32;10.82;;;6.00;;
22490;SDS011;11412;50.802;4.350;2024-02-04T08:17:58;10.05;;;5.63;;
22490;SDS011;11412;50.802;4.350;2024-02-04T08:20:23;6.72;;;5.10;;
22490;SDS011;11412;50.802;4.350;2024-02-04T08:22:49;8.38;;;5.70;;
22490;SDS011;11412;50.802;4.350;2024-02-04T08:25:16;9.40;;;5.30;;
22490;SDS011;11412;50.802;4.350;2024-02-04T08:27:41;14.32;;;5.75;;
22490;SDS011;11412;50.802;4.350;2024-02-04T08:30:07;7.35;;;4.78;;
22490;SDS011;11412;50.802;4.350;2024-02-04T08:32:35;12.30;;;5.50;;
22490;SDS011;11412;50.802;4.350;2024-02-04T08:35:00;11.60;;;5.43;;
22490;SDS011;11412;50.802;4.350;2024-02-04T08:37:26;11.98;;;5.13;;
22490;SDS011;11412;50.802;4.350;2024-02-04T08:39:51;7.57;;;5.05;;
22490;SDS011;11412;50.802;4.350;2024-02-04T08:42:17;8.35;;;5.18;;
22490;SDS011;11412;50.802;4.350;2024-02-04T08:44:43;10.23;;;5.30;;
22490;SDS011;11412;50.802;4.350;2024-02-04T08:47:09;9.55;;;4.32;;
22490;SDS011;11412;50.802;4.350;2024-02-04T08:49:36;6.38;;;3.67;;
22490;SDS011;11412;50.802;4.350;2024-02-04T08:52:02;9.40;;;4.65;;
22490;SDS011;11412;50.802;4.350;2024-02-04T08:54:28;6.90;;;3.92;;
22490;SDS011;11412;50.802;4.350;2024-02-04T08:56:54;5.38;;;3.53;;
22490;SDS011;11412;50.802;4.350;2024-02-04T08:59:20;4.95;;;3.45;;
22490;SDS011;11412;50.802;4.350;2024-02-04T09:01:46;5.10;;;3.55;;
22490;SDS011;11412;50.802;4.350;2024-02-04T09:04:11;7.18;;;3.55;;
22490;SDS011;11412;50.802;4.350;2024-02-04T09:06:37;4.45;;;3.17;;
22490;SDS011;11412;50.802;4.350;2024-02-04T09:09:03;5.05;;;3.03;;
22490;SDS011;11412;50.802;4.350;2024-02-04T09:11:29;5.10;;;3.20;;
22490;SDS011;11412;50.802;4.350;2024-02-04T09:13:54;6.72;;;2.88;;
22490;SDS011;11412;50.802;4.350;2024-02-04T09:16:20;4.25;;;2.55;;
22490;SDS011;11412;50.802;4.350;2024-02-04T09:18:46;5.28;;;2.42;;
22490;SDS011;11412;50.802;4.350;2024-02-04T09:21:12;4.55;;;2.30;;
22490;SDS011;11412;50.802;4.350;2024-02-04T09:23:39;6.78;;;2.30;;
22490;SDS011;11412;50.802;4.350;2024-02-04T09:26:04;4.72;;;2.00;;
22490;SDS011;11412;50.802;4.350;2024-02-04T09:28:30;3.47;;;2.08;;
22490;SDS011;11412;50.802;4.350;2024-02-04T09:30:56;3.38;;;2.15;;
22490;SDS011;11412;50.802;4.350;2024-02-04T09:33:22;2.85;;;2.00;;
22490;SDS011;11412;50.802;4.350;2024-02-04T09:35:47;3.17;;;1.77;;
22490;SDS011;11412;50.802;4.350;2024-02-04T09:38:14;1.80;;;1.45;;
22490;SDS011;11412;50.802;4.350;2024-02-04T09:40:40;3.50;;;1.58;;
22490;SDS011;11412;50.802;4.350;2024-02-04T09:43:06;2.67;;;1.50;;
22490;SDS011;11412;50.802;4.350;2024-02-04T09:45:32;6.47;;;1.67;;
22490;SDS011;11412;50.802;4.350;2024-02-04T09:47:59;5.45;;;1.63;;
22490;SDS011;11412;50.802;4.350;2024-02-04T09:50:27;3.72;;;2.55;;
22490;SDS011;11412;50.802;4.350;2024-02-04T09:52:54;4.55;;;1.95;;
22490;SDS011;11412;50.802;4.350;2024-02-04T09:55:24;1.92;;;1.83;;
22490;SDS011;11412;50.802;4.350;2024-02-04T09:57:51;2.28;;;2.00;;
22490;SDS011;11412;50.802;4.350;2024-02-04T10:00:18;4.10;;;2.60;;
22490;SDS011;11412;50.802;4.350;2024-02-04T10:02:48;3.33;;;2.63;;
22490;SDS011;11412;50.802;4.350;2024-02-04T10:05:16;5.13;;;2.42;;
22490;SDS011;11412;50.802;4.350;2024-02-04T10:07:42;8.15;;;2.90;;
22490;SDS011;11412;50.802;4.350;2024-02-04T10:10:08;5.93;;;2.58;;
22490;SDS011;11412;50.802;4.350;2024-02-04T10:12:34;4.03;;;2.50;;
22490;SDS011;11412;50.802;4.350;2024-02-04T10:15:01;4.43;;;3.05;;
22490;SDS011;11412;50.802;4.350;2024-02-04T10:17:29;5.93;;;2.80;;
22490;SDS011;11412;50.802;4.350;2024-02-04T10:19:56;5.55;;;3.75;;
22490;SDS011;11412;50.802;4.350;2024-02-04T10:22:22;3.08;;;2.67;;
22490;SDS011;11412;50.802;4.350;2024-02-04T10:24:50;6.40;;;3.00;;
22490;SDS011;11412;50.802;4.350;2024-02-04T10:27:17;4.38;;;3.10;;
22490;SDS011;11412;50.802;4.350;2024-02-04T10:29:43;3.88;;;3.10;;
22490;SDS011;11412;50.802;4.350;2024-02-04T10:32:08;3.25;;;2.63;;
22490;SDS011;11412;50.802;4.350;2024-02-04T10:34:37;2.97;;;2.45;;
22490;SDS011;11412;50.802;4.350;2024-02-04T10:37:03;6.05;;;2.83;;
22490;SDS011;11412;50.802;4.350;2024-02-04T10:39:29;4.93;;;2.60;;
22490;SDS011;11412;50.802;4.350;2024-02-04T10:41:55;4.07;;;1.98;;
22490;SDS011;11412;50.802;4.350;2024-02-04T10:44:24;4.65;;;2.03;;
22490;SDS011;11412;50.802;4.350;2024-02-04T10:46:51;4.50;;;1.85;;
22490;SDS011;11412;50.802;4.350;2024-02-04T10:49:19;4.18;;;1.65;;
22490;SDS011;11412;50.802;4.350;2024-02-04T10:51:45;5.07;;;1.33;;
22490;SDS011;11412;50.802;4.350;2024-02-04T10:54:11;4.95;;;2.03;;
22490;SDS011;11412;50.802;4.350;2024-02-04T10:56:43;4.70;;;1.80;;
22490;SDS011;11412;50.802;4.350;2024-02-04T10:59:11;2.92;;;1.67;;
22490;SDS011;11412;50.802;4.350;2024-02-04T11:01:42;1.83;;;1.35;;
22490;SDS011;11412;50.802;4.350;2024-02-04T11:04:10;5.75;;;1.38;;
22490;SDS011;11412;50.802;4.350;2024-02-04T11:06:38;2.47;;;1.23;;
22490;SDS011;11412;50.802;4.350;2024-02-04T11:09:06;5.97;;;1.30;;
22490;SDS011;11412;50.802;4.350;2024-02-04T11:11:35;2.75;;;1.38;;
22490;SDS011;11412;50.802;4.350;2024-02-04T11:14:02;6.90;;;1.80;;
22490;SDS011;11412;50.802;4.350;2024-02-04T11:19:38;2.17;;;1.00;;
22490;SDS011;11412;50.802;4.350;2024-02-04T11:24:53;3.00;;;1.10;;
22490;SDS011;11412;50.802;4.350;2024-02-04T11:27:35;2.03;;;1.15;;
22490;SDS011;11412;50.802;4.350;2024-02-04T11:30:01;2.13;;;1.10;;
22490;SDS011;11412;50.802;4.350;2024-02-04T11:32:27;2.78;;;1.30;;
22490;SDS011;11412;50.802;4.350;2024-02-04T11:34:53;1.13;;;0.98;;
22490;SDS011;11412;50.802;4.350;2024-02-04T11:37:20;3.38;;;0.90;;
22490;SDS011;11412;50.802;4.350;2024-02-04T11:39:52;0.85;;;0.85;;
22490;SDS011;11412;50.802;4.350;2024-02-04T11:42:22;1.10;;;1.02;;
22490;SDS011;11412;50.802;4.350;2024-02-04T11:44:48;1.65;;;0.95;;
22490;SDS011;11412;50.802;4.350;2024-02-04T11:47:26;3.55;;;1.00;;
22490;SDS011;11412;50.802;4.350;2024-02-04T11:49:55;3.05;;;1.17;;
22490;SDS011;11412;50.802;4.350;2024-02-04T11:52:22;3.17;;;1.20;;
22490;SDS011;11412;50.802;4.350;2024-02-04T11:54:48;1.20;;;1.17;;
22490;SDS011;11412;50.802;4.350;2024-02-04T11:57:14;2.53;;;1.30;;
22490;SDS011;11412;50.802;4.350;2024-02-04T11:59:40;3.70;;;1.13;;
22490;SDS011;11412;50.802;4.350;2024-02-04T12:02:08;1.45;;;1.25;;
22490;SDS011;11412;50.802;4.350;2024-02-04T12:04:34;2.65;;;1.33;;
22490;SDS011;11412;50.802;4.350;2024-02-04T12:07:00;2.28;;;1.30;;
22490;SDS011;11412;50.802;4.350;2024-02-04T12:09:27;3.92;;;1.63;;
22490;SDS011;11412;50.802;4.350;2024-02-04T12:11:54;3.78;;;1.52;;
22490;SDS011;11412;50.802;4.350;2024-02-04T12:14:19;3.95;;;1.83;;
22490;SDS011;11412;50.802;4.350;2024-02-04T12:16:47;2.75;;;1.58;;
22490;SDS011;11412;50.802;4.350;2024-02-04T12:19:12;2.05;;;1.48;;
22490;SDS011;11412;50.802;4.350;2024-02-04T12:21:38;2.35;;;1.20;;
22490;SDS011;11412;50.802;4.350;2024-02-04T12:24:05;3.72;;;1.33;;
22490;SDS011;11412;50.802;4.350;2024-02-04T12:26:31;1.75;;;1.45;;
22490;SDS011;11412;50.802;4.350;2024-02-04T12:28:58;4.88;;;1.38;;
22490;SDS011;11412;50.802;4.350;2024-02-04T12:31:27;2.80;;;1.52;;
22490;SDS011;11412;50.802;4.350;2024-02-04T12:33:57;3.75;;;1.63;;
22490;SDS011;11412;50.802;4.350;2024-02-04T12:36:26;4.53;;;1.95;;
22490;SDS011;11412;50.802;4.350;2024-02-04T12:38:56;4.85;;;1.58;;
22490;SDS011;11412;50.802;4.350;2024-02-04T12:41:23;3.80;;;1.63;;
22490;SDS011;11412;50.802;4.350;2024-02-04T12:43:56;1.98;;;1.52;;
22490;SDS011;11412;50.802;4.350;2024-02-04T12:46:23;2.38;;;1.48;;
22490;SDS011;11412;50.802;4.350;2024-02-04T12:48:52;1.70;;;1.20;;
22490;SDS011;11412;50.802;4.350;2024-02-04T12:51:31;1.60;;;1.50;;
22490;SDS011;11412;50.802;4.350;2024-02-04T12:56:48;1.70;;;1.60;;
22490;SDS011;11412;50.802;4.350;2024-02-04T12:59:24;2.05;;;1.30;;
22490;SDS011;11412;50.802;4.350;2024-02-04T13:04:23;1.38;;;1.30;;
22490;SDS011;11412;50.802;4.350;2024-02-04T13:06:50;2.50;;;1.27;;
22490;SDS011;11412;50.802;4.350;2024-02-04T13:09:17;2.42;;;1.50;;
22490;SDS011;11412;50.802;4.350;2024-02-04T13:11:43;1.50;;;1.02;;
22490;SDS011;11412;50.802;4.350;2024-02-04T13:14:09;3.88;;;1.40;;
22490;SDS011;11412;50.802;4.350;2024-02-04T13:16:35;4.68;;;1.40;;
22490;SDS011;11412;50.802;4.350;2024-02-04T13:19:02;1.40;;;1.27;;
22490;SDS011;11412;50.802;4.350;2024-02-04T13:21:28;5.15;;;1.73;;
22490;SDS011;11412;50.802;4.350;2024-02-04T13:23:54;3.72;;;1.40;;
22490;SDS011;11412;50.802;4.350;2024-02-04T13:26:22;3.88;;;1.48;;
22490;SDS011;11412;50.802;4.350;2024-02-04T13:28:48;3.65;;;1.65;;
22490;SDS011;11412;50.802;4.350;2024-02-04T13:31:14;1.90;;;1.30;;
22490;SDS011;11412;50.802;4.350;2024-02-04T13:33:39;3.55;;;1.67;;
22490;SDS011;11412;50.802;4.350;2024-02-04T13:36:09;1.58;;;1.48;;
22490;SDS011;11412;50.802;4.350;2024-02-04T13:38:36;4.60;;;1.95;;
22490;SDS011;11412;50.802;4.350;2024-02-04T13:41:02;2.45;;;1.40;;
22490;SDS011;11412;50.802;4.350;2024-02-04T13:43:31;1.80;;;1.70;;
22490;SDS011;11412;50.802;4.350;2024-02-04T13:45:59;4.97;;;1.90;;
22490;SDS011;11412;50.802;4.350;2024-02-04T13:48:26;4.63;;;2.08;;
22490;SDS011;11412;50.802;4.350;2024-02-04T13:50:52;2.92;;;1.70;;
22490;SDS011;11412;50.802;4.350;2024-02-04T13:53:20;5.30;;;2.38;;
22490;SDS011;11412;50.802;4.350;2024-02-04T13:55:46;4.63;;;1.67;;
22490;SDS011;11412;50.802;4.350;2024-02-04T13:58:13;5.25;;;1.60;;
22490;SDS011;11412;50.802;4.350;2024-02-04T14:00:39;1.70;;;1.60;;
22490;SDS011;11412;50.802;4.350;2024-02-04T14:03:05;6.38;;;2.10;;
22490;SDS011;11412;50.802;4.350;2024-02-04T14:05:32;4.03;;;2.47;;
22490;SDS011;11412;50.802;4.350;2024-02-04T14:07:58;3.38;;;2.13;;
22490;SDS011;11412;50.802;4.350;2024-02-04T14:10:23;3.70;;;2.03;;
22490;SDS011;11412;50.802;4.350;2024-02-04T14:12:49;3.75;;;1.92;;
22490;SDS011;11412;50.802;4.350;2024-02-04T14:15:15;2.83;;;2.00;;
22490;SDS011;11412;50.802;4.350;2024-02-04T14:17:41;4.20;;;1.83;;
22490;SDS011;11412;50.802;4.350;2024-02-04T14:20:07;3.67;;;1.83;;
22490;SDS011;11412;50.802;4.350;2024-02-04T14:22:34;8.20;;;2.10;;
22490;SDS011;11412;50.802;4.350;2024-02-04T14:25:00;5.32;;;2.17;;
22490;SDS011;11412;50.802;4.350;2024-02-04T14:27:26;4.47;;;1.95;;
22490;SDS011;11412;50.802;4.350;2024-02-04T14:29:51;3.90;;;1.85;;
22490;SDS011;11412;50.802;4.350;2024-02-04T14:32:17;5.22;;;2.13;;
22490;SDS011;11412;50.802;4.350;2024-02-04T14:34:43;4.78;;;2.00;;
22490;SDS011;11412;50.802;4.350;2024-02-04T14:37:09;3.38;;;2.08;;
22490;SDS011;11412;50.802;4.350;2024-02-04T14:39:36;8.07;;;2.40;;
22490;SDS011;11412;50.802;4.350;2024-02-04T14:42:01;4.75;;;1.92;;
22490;SDS011;11412;50.802;4.350;2024-02-04T14:44:27;6.40;;;1.70;;
22490;SDS011;11412;50.802;4.350;2024-02-04T14:46:54;6.28;;;1.98;;
22490;SDS011;11412;50.802;4.350;2024-02-04T14:49:20;5.10;;;1.98;;
22490;SDS011;11412;50.802;4.350;2024-02-04T14:51:46;6.60;;;1.92;;
22490;SDS011;11412;50.802;4.350;2024-02-04T14:54:12;7.05;;;2.13;;
22490;SDS011;11412;50.802;4.350;2024-02-04T14:56:38;3.72;;;1.95;;
22490;SDS011;11412;50.802;4.350;2024-02-04T14:59:05;4.82;;;1.92;;